Welcome to Des Moines Iowa Weather. I am an independent private personal weather station on the Northwest Side of Des Moines, Iowa. Just East of Windsor Heights and just West of Glendale . This site is also mobile friendly.

There are no active watches, warnings or advisories


Visit our other weather sites:

Historical Data

Weather Station Setup



Weather Underground History page Text

Daily Summary for May 6, 2017 Units:  English    Metric   Both
« Previous Day
Next Day »
Daily Weekly Monthly Yearly Custom
  High: Low: Average:
Temperature: 73.0 °F 52.9 °F 63.1 °F
Dew Point: 47.0 °F 33.0 °F 40.2 °F
Humidity: 74 % 24 % 46 %
Wind Speed: 8.0 mph 0.0 mph 1.2 mph
Wind Gust: 14.0 mph - -
Wind:- - SSE
Pressure: 29.92 in 29.71 in -
Precipitation: 0.00 in    
Historical Graphs
 
 
Tabular Data for May 6, 2017
Time Temperature Dew Point Pressure Wind Wind Speed Wind Gust Humidity Rainfall Rate (Hourly)
00:05 59.8 °F 41.0 °F 29.74 in Calm     51 % 0.00 in
00:20 59.6 °F 41.0 °F 29.74 in Calm     51 % 0.00 in
00:35 59.6 °F 41.0 °F 29.74 in Calm     51 % 0.00 in
00:50 59.6 °F 41.0 °F 29.73 in Calm     51 % 0.00 in
01:05 59.4 °F 41.0 °F 29.73 in Calm     51 % 0.00 in
01:20 59.3 °F 41.0 °F 29.73 in Calm   1.0 mph 51 % 0.00 in
01:35 59.2 °F 41.0 °F 29.72 in Calm     52 % 0.00 in
01:50 58.9 °F 41.0 °F 29.72 in Calm   2.0 mph 52 % 0.00 in
02:05 58.9 °F 41.0 °F 29.71 in NNW 2.0 mph 3.0 mph 52 % 0.00 in
02:20 59.1 °F 41.0 °F 29.71 in Calm   1.0 mph 51 % 0.00 in
02:35 59.4 °F 41.0 °F 29.72 in Calm   1.0 mph 51 % 0.00 in
02:50 59.5 °F 41.0 °F 29.71 in Calm   3.0 mph 51 % 0.00 in
03:05 59.5 °F 41.0 °F 29.72 in Calm   4.0 mph 51 % 0.00 in
03:20 59.6 °F 41.0 °F 29.74 in Calm   9.0 mph 51 % 0.00 in
03:35 59.3 °F 41.0 °F 29.74 in NNW 1.0 mph 6.0 mph 52 % 0.00 in
03:50 59.0 °F 42.0 °F 29.75 in North 1.0 mph 9.0 mph 53 % 0.00 in
04:05 58.8 °F 42.0 °F 29.75 in WNW 2.0 mph 9.0 mph 54 % 0.00 in
04:20 59.0 °F 43.0 °F 29.76 in WNW 3.0 mph 10.0 mph 55 % 0.00 in
04:35 58.7 °F 43.0 °F 29.77 in NNE 1.0 mph 4.0 mph 56 % 0.00 in
04:50 58.1 °F 43.0 °F 29.77 in NNW 1.0 mph 5.0 mph 58 % 0.00 in
05:05 57.4 °F 44.0 °F 29.78 in ENE 1.0 mph 4.0 mph 61 % 0.00 in
05:21 56.8 °F 44.0 °F 29.78 in Calm   3.0 mph 63 % 0.00 in
05:36 56.1 °F 44.0 °F 29.79 in Calm   4.0 mph 65 % 0.00 in
05:51 55.3 °F 44.0 °F 29.80 in North 1.0 mph 3.0 mph 66 % 0.00 in
06:06 54.6 °F 44.0 °F 29.80 in Calm   2.0 mph 68 % 0.00 in
06:21 53.9 °F 44.0 °F 29.81 in Calm   3.0 mph 70 % 0.00 in
06:36 53.3 °F 44.0 °F 29.82 in Calm   2.0 mph 71 % 0.00 in
06:51 52.9 °F 44.0 °F 29.82 in NNE 2.0 mph 3.0 mph 73 % 0.00 in
07:05 52.9 °F 45.0 °F 29.83 in NE 2.0 mph 5.0 mph 74 % 0.00 in
07:20 53.3 °F 45.0 °F 29.84 in NE 2.0 mph 4.0 mph 74 % 0.00 in
07:37 53.9 °F 46.0 °F 29.84 in NNE 1.0 mph 3.0 mph 74 % 0.00 in
07:52 54.8 °F 46.0 °F 29.85 in NNE 2.0 mph 5.0 mph 72 % 0.00 in
08:11 55.6 °F 46.0 °F 29.86 in NNW 3.0 mph 9.0 mph 71 % 0.00 in
08:22 56.0 °F 46.0 °F 29.87 in NW 1.0 mph 5.0 mph 70 % 0.00 in
08:37 56.7 °F 47.0 °F 29.87 in Calm   8.0 mph 69 % 0.00 in
08:52 57.6 °F 47.0 °F 29.88 in North 1.0 mph 10.0 mph 69 % 0.00 in
09:07 58.6 °F 47.0 °F 29.89 in North 3.0 mph 8.0 mph 66 % 0.00 in
09:22 59.2 °F 47.0 °F 29.89 in ENE 1.0 mph 8.0 mph 65 % 0.00 in
09:37 59.8 °F 47.0 °F 29.89 in WNW 4.0 mph 8.0 mph 63 % 0.00 in
09:52 60.6 °F 46.0 °F 29.90 in NNE 3.0 mph 10.0 mph 60 % 0.00 in
10:07 61.1 °F 46.0 °F 29.90 in NE 1.0 mph 5.0 mph 59 % 0.00 in
10:22 61.7 °F 46.0 °F 29.90 in North 1.0 mph 8.0 mph 57 % 0.00 in
10:37 63.1 °F 45.0 °F 29.90 in NE 2.0 mph 11.0 mph 52 % 0.00 in
10:52 64.0 °F 43.0 °F 29.90 in Calm   9.0 mph 47 % 0.00 in
11:07 66.1 °F 43.0 °F 29.90 in NNW 3.0 mph 10.0 mph 44 % 0.00 in
11:22 66.7 °F 41.0 °F 29.90 in NE 7.0 mph 11.0 mph 39 % 0.00 in
11:37 68.6 °F 44.0 °F 29.90 in NE 4.0 mph 8.0 mph 41 % 0.00 in
11:52 69.2 °F 40.0 °F 29.90 in ENE 1.0 mph 8.0 mph 35 % 0.00 in
12:08 69.3 °F 42.0 °F 29.90 in NE 1.0 mph 9.0 mph 37 % 0.00 in
12:22 69.7 °F 41.0 °F 29.90 in SE 3.0 mph 12.0 mph 35 % 0.00 in
12:37 69.9 °F 39.0 °F 29.89 in ENE 5.0 mph 10.0 mph 33 % 0.00 in
12:52 71.0 °F 42.0 °F 29.89 in Calm   9.0 mph 35 % 0.00 in
13:07 70.9 °F 39.0 °F 29.89 in NW 1.0 mph 9.0 mph 31 % 0.00 in
13:23 70.1 °F 38.0 °F 29.89 in ENE 1.0 mph 14.0 mph 31 % 0.00 in
13:38 70.5 °F 37.0 °F 29.89 in NE 3.0 mph 10.0 mph 29 % 0.00 in
13:53 70.6 °F 38.0 °F 29.89 in NE 2.0 mph 8.0 mph 31 % 0.00 in
14:08 71.1 °F 37.0 °F 29.89 in North 2.0 mph 8.0 mph 29 % 0.00 in
14:23 71.3 °F 41.0 °F 29.88 in Calm   9.0 mph 33 % 0.00 in
14:38 71.4 °F 36.0 °F 29.88 in ESE 3.0 mph 11.0 mph 27 % 0.00 in
14:53 71.6 °F 35.0 °F 29.88 in NE 2.0 mph 8.0 mph 26 % 0.00 in
15:08 71.9 °F 37.0 °F 29.88 in WNW 4.0 mph 12.0 mph 28 % 0.00 in
15:23 72.2 °F 37.0 °F 29.87 in NNW 2.0 mph 8.0 mph 28 % 0.00 in
15:38 72.0 °F 35.0 °F 29.87 in WSW 5.0 mph 12.0 mph 26 % 0.00 in
15:53 73.0 °F 40.0 °F 29.86 in NNE 1.0 mph 9.0 mph 30 % 0.00 in
16:08 72.1 °F 33.0 °F 29.86 in Calm   7.0 mph 24 % 0.00 in
16:23 72.9 °F 37.0 °F 29.85 in WNW 8.0 mph 10.0 mph 27 % 0.00 in
16:38 72.6 °F 35.0 °F 29.86 in West 3.0 mph 6.0 mph 25 % 0.00 in
16:53 72.9 °F 35.0 °F 29.86 in North 1.0 mph 8.0 mph 25 % 0.00 in
17:08 72.8 °F 34.0 °F 29.86 in WNW 3.0 mph 10.0 mph 24 % 0.00 in
17:24 72.3 °F 35.0 °F 29.85 in Calm   10.0 mph 25 % 0.00 in
17:38 72.0 °F 35.0 °F 29.85 in WNW 2.0 mph 9.0 mph 26 % 0.00 in
17:53 72.5 °F 35.0 °F 29.85 in Calm   5.0 mph 25 % 0.00 in
18:08 71.6 °F 33.0 °F 29.86 in Calm   6.0 mph 24 % 0.00 in
18:23 70.7 °F 33.0 °F 29.86 in ENE 1.0 mph 6.0 mph 25 % 0.00 in
18:38 70.6 °F 35.0 °F 29.86 in Calm   9.0 mph 27 % 0.00 in
18:53 70.4 °F 34.0 °F 29.86 in North 2.0 mph 5.0 mph 26 % 0.00 in
19:08 70.1 °F 35.0 °F 29.86 in Calm   3.0 mph 28 % 0.00 in
19:23 69.7 °F 34.0 °F 29.86 in Calm   1.0 mph 27 % 0.00 in
19:38 69.2 °F 35.0 °F 29.87 in Calm   3.0 mph 28 % 0.00 in
19:53 68.8 °F 35.0 °F 29.87 in Calm   1.0 mph 29 % 0.00 in
20:08 68.1 °F 35.0 °F 29.87 in Calm   1.0 mph 30 % 0.00 in
20:23 67.0 °F 36.0 °F 29.87 in Calm     32 % 0.00 in
20:38 65.5 °F 37.0 °F 29.88 in Calm     35 % 0.00 in
20:53 63.9 °F 37.0 °F 29.88 in Calm     37 % 0.00 in
21:08 62.6 °F 37.0 °F 29.88 in Calm     39 % 0.00 in
21:23 61.4 °F 38.0 °F 29.88 in Calm     42 % 0.00 in
21:38 60.3 °F 39.0 °F 29.89 in Calm     45 % 0.00 in
21:53 59.4 °F 39.0 °F 29.90 in Calm     47 % 0.00 in
22:08 58.5 °F 39.0 °F 29.90 in Calm     48 % 0.00 in
22:23 57.7 °F 39.0 °F 29.90 in Calm     50 % 0.00 in
22:38 57.1 °F 39.0 °F 29.90 in Calm     51 % 0.00 in
22:53 56.5 °F 38.0 °F 29.91 in Calm     51 % 0.00 in
23:08 56.1 °F 38.0 °F 29.91 in Calm     51 % 0.00 in
23:23 55.5 °F 38.0 °F 29.91 in Calm     52 % 0.00 in
23:38 54.8 °F 38.0 °F 29.91 in Calm     53 % 0.00 in
23:53 54.2 °F 38.0 °F 29.92 in Calm     55 % 0.00 in
Des Moines Weather and Climate
Compliments of Weather Underground - 3 mb

Script developed by  Jim McMurry - jmcmurry@mwt.net Adapted for the template by  Wim van der Kuil - Leuven-Template.eu

You find our weather info also at:

Weather Underground

Equipment we use:

Weather-station
Davis VP2 Plus

Weather-program
Davis Weatherlink.Com

Weather-server
iMac (Retina 4K, 21.5-inch, Late 2015)

Provider
Hostmonster.com

Davis VP2 Plus

Davis Weatherlink.Com

iMac (Retina 4K, 21.5-inch, Late 2015)

Hostmonster.com